createdAt,value
2018-08-16T00:03:46.622Z,18.37
2018-08-16T00:08:41.346Z,18.25
2018-08-16T00:13:36.087Z,17.95
2018-08-16T00:18:30.875Z,18.06
2018-08-16T00:23:25.616Z,18.02
2018-08-16T00:28:20.329Z,17.91
2018-08-16T00:33:15.019Z,18.00
2018-08-16T00:38:09.819Z,18.02
2018-08-16T00:43:04.590Z,17.85
2018-08-16T00:47:59.404Z,17.74
2018-08-16T00:52:54.178Z,17.64
2018-08-16T00:57:48.963Z,17.58
2018-08-16T01:02:43.710Z,17.70
2018-08-16T01:07:38.510Z,17.55
2018-08-16T01:12:33.317Z,17.70
2018-08-16T01:17:28.110Z,17.76
2018-08-16T01:22:23.442Z,17.46
2018-08-16T01:27:18.240Z,17.43
2018-08-16T01:32:13.041Z,17.42
2018-08-16T01:37:08.073Z,17.32
2018-08-16T01:42:02.847Z,17.17
2018-08-16T01:46:57.604Z,17.12
2018-08-16T01:51:52.392Z,17.39
2018-08-16T01:56:47.207Z,17.29
2018-08-16T02:01:42.006Z,17.09
2018-08-16T02:06:36.949Z,17.26
2018-08-16T02:11:31.675Z,17.19
2018-08-16T02:16:26.880Z,17.15
2018-08-16T02:21:21.729Z,16.84
2018-08-16T02:26:16.504Z,16.87
2018-08-16T02:31:11.319Z,17.01
2018-08-16T02:36:06.383Z,16.89
2018-08-16T02:41:01.558Z,16.67
2018-08-16T02:45:56.383Z,16.76
2018-08-16T02:50:51.203Z,16.78
2018-08-16T02:55:45.934Z,16.68
2018-08-16T03:00:40.683Z,16.80
2018-08-16T03:05:35.476Z,16.89
2018-08-16T03:10:30.228Z,16.84
2018-08-16T03:15:24.978Z,16.66
2018-08-16T03:20:19.775Z,16.72
2018-08-16T03:25:14.595Z,16.52
2018-08-16T03:30:09.356Z,16.66
2018-08-16T03:35:04.280Z,16.53
2018-08-16T03:39:59.001Z,16.57
2018-08-16T03:44:53.915Z,16.42
2018-08-16T03:49:48.652Z,16.35
2018-08-16T03:54:43.359Z,16.34
2018-08-16T03:59:38.118Z,16.33
2018-08-16T04:04:32.911Z,16.26
2018-08-16T04:09:27.621Z,16.28
2018-08-16T04:14:22.279Z,16.47
2018-08-16T04:19:16.925Z,16.36
2018-08-16T04:24:11.752Z,16.25
2018-08-16T04:29:06.559Z,16.25
2018-08-16T04:34:01.264Z,16.24
2018-08-16T04:38:56.053Z,16.28
2018-08-16T04:43:50.848Z,16.31
2018-08-16T04:48:45.564Z,16.42
2018-08-16T04:53:40.345Z,16.68
2018-08-16T04:58:35.132Z,17.11
2018-08-16T05:03:29.896Z,17.41
2018-08-16T05:08:24.647Z,17.63
2018-08-16T05:13:19.351Z,17.85
2018-08-16T05:18:14.160Z,17.96
2018-08-16T05:23:08.898Z,17.87
2018-08-16T05:28:03.734Z,17.92
2018-08-16T05:32:58.536Z,18.04
2018-08-16T05:37:53.269Z,18.04
2018-08-16T05:42:48.092Z,17.95
2018-08-16T05:47:42.883Z,18.01
2018-08-16T05:52:37.763Z,18.01
2018-08-16T05:57:32.598Z,18.09
2018-08-16T06:02:30.696Z,18.09
2018-08-16T06:07:25.381Z,18.14
2018-08-16T06:12:20.237Z,18.16
2018-08-16T06:17:15.497Z,18.30
2018-08-16T06:22:10.356Z,18.42
2018-08-16T06:27:05.161Z,18.53
2018-08-16T06:31:59.864Z,18.70
2018-08-16T06:36:54.762Z,18.80
2018-08-16T06:41:49.553Z,18.86
2018-08-16T06:46:44.503Z,19.15
2018-08-16T06:51:39.353Z,19.36
2018-08-16T06:56:34.140Z,19.53
2018-08-16T07:01:28.954Z,19.88
2018-08-16T07:06:23.856Z,20.04
2018-08-16T07:11:18.554Z,20.27
2018-08-16T07:16:13.316Z,20.59
2018-08-16T07:21:08.044Z,20.87
2018-08-16T07:26:02.753Z,21.03
2018-08-16T07:30:57.535Z,21.67
2018-08-16T07:35:52.337Z,22.01
2018-08-16T07:40:47.763Z,22.49
2018-08-16T07:45:42.492Z,22.84
2018-08-16T07:50:37.180Z,23.26
2018-08-16T07:55:31.844Z,23.70
2018-08-16T08:00:26.576Z,23.47
2018-08-16T08:05:21.478Z,23.67
2018-08-16T08:10:16.184Z,23.83
2018-08-16T08:15:14.236Z,24.23
2018-08-16T08:20:12.292Z,24.31
2018-08-16T08:25:07.531Z,24.54
2018-08-16T08:30:02.449Z,25.00
2018-08-16T08:34:57.568Z,24.97
2018-08-16T08:39:52.381Z,25.21
2018-08-16T08:44:47.118Z,25.59
2018-08-16T08:49:41.814Z,25.51
2018-08-16T08:54:54.332Z,25.88
2018-08-16T08:59:49.577Z,26.01
2018-08-16T09:04:45.340Z,26.02
2018-08-16T09:09:49.915Z,26.24
2018-08-16T09:15:01.067Z,26.41
2018-08-16T09:19:55.785Z,26.59
2018-08-16T09:24:50.505Z,26.56
2018-08-16T09:32:31.660Z,26.60
2018-08-16T09:37:31.468Z,25.99
2018-08-16T09:42:26.373Z,26.55
2018-08-16T09:47:37.798Z,25.92
2018-08-16T09:52:33.982Z,26.28
2018-08-16T09:57:28.725Z,26.44
2018-08-16T10:02:23.507Z,26.74
2018-08-16T10:07:18.208Z,26.91
2018-08-16T10:12:12.844Z,26.97
2018-08-16T10:17:07.974Z,26.79
2018-08-16T10:22:02.536Z,26.63
2018-08-16T10:26:57.266Z,27.09
2018-08-16T10:31:51.901Z,27.35
2018-08-16T10:36:46.661Z,27.36
2018-08-16T10:41:41.731Z,27.76
2018-08-16T10:46:36.561Z,27.56
2018-08-16T10:51:31.239Z,27.52
2018-08-16T10:56:25.983Z,27.39
2018-08-16T11:01:20.654Z,27.49
2018-08-16T11:06:15.292Z,27.27
2018-08-16T11:11:10.031Z,27.36
2018-08-16T11:16:04.680Z,27.35
2018-08-16T11:20:59.417Z,27.68
2018-08-16T11:25:54.120Z,27.80
2018-08-16T11:30:48.975Z,27.69
2018-08-16T11:35:43.760Z,28.16
2018-08-16T11:40:38.540Z,28.12
2018-08-16T11:45:33.248Z,28.27
2018-08-16T11:50:27.959Z,28.31
2018-08-16T11:55:22.591Z,28.39
2018-08-16T12:00:17.324Z,28.18
2018-08-16T12:05:12.046Z,28.40
2018-08-16T12:10:07.564Z,28.14
2018-08-16T12:15:02.154Z,28.21
2018-08-16T12:19:56.782Z,28.12
2018-08-16T12:24:51.354Z,28.02
2018-08-16T12:29:46.138Z,27.89
2018-08-16T12:34:40.749Z,27.99
2018-08-16T12:39:35.335Z,28.00
2018-08-16T12:44:30.096Z,28.10
2018-08-16T12:49:24.786Z,28.03
2018-08-16T12:54:19.550Z,28.17
2018-08-16T12:59:14.138Z,27.99
2018-08-16T13:17:03.236Z,27.83
2018-08-16T13:21:57.816Z,27.97
2018-08-16T13:26:52.479Z,27.72
2018-08-16T13:31:47.116Z,27.80
2018-08-16T13:36:41.899Z,27.86
2018-08-16T13:41:36.609Z,27.83
2018-08-16T13:46:31.284Z,27.72
2018-08-16T13:51:25.876Z,27.84
2018-08-16T13:56:20.642Z,27.72
2018-08-16T14:01:15.249Z,27.76
2018-08-16T14:06:09.871Z,27.69
2018-08-16T14:11:04.548Z,27.74
2018-08-16T14:15:59.245Z,27.81
2018-08-16T14:20:53.911Z,27.87
2018-08-16T14:25:48.645Z,27.71
2018-08-16T14:30:43.508Z,27.92
2018-08-16T14:35:38.384Z,28.02
2018-08-16T14:40:33.055Z,27.88
2018-08-16T14:45:27.775Z,27.77
2018-08-16T14:50:22.554Z,27.94
2018-08-16T14:55:17.281Z,28.02
2018-08-16T15:00:12.028Z,28.04
2018-08-16T15:05:07.355Z,28.22
2018-08-16T15:10:01.959Z,28.18
2018-08-16T15:14:56.766Z,28.28
2018-08-16T15:19:51.378Z,28.28
2018-08-16T15:24:46.038Z,28.16
2018-08-16T15:29:40.639Z,28.20
2018-08-16T15:34:35.294Z,28.10
2018-08-16T15:39:30.015Z,28.05
2018-08-16T15:44:24.718Z,28.19
2018-08-16T15:49:19.329Z,28.13
2018-08-16T15:54:14.636Z,28.19
2018-08-16T15:59:09.459Z,28.23
2018-08-16T16:04:04.273Z,28.18
2018-08-16T16:08:59.009Z,28.12
2018-08-16T16:13:53.636Z,28.09
2018-08-16T16:18:48.476Z,28.14
2018-08-16T16:23:43.324Z,28.26
2018-08-16T16:28:38.164Z,28.10
2018-08-16T16:33:33.239Z,27.98
2018-08-16T16:38:28.300Z,27.96
2018-08-16T16:43:23.297Z,27.85
2018-08-16T16:48:18.142Z,27.76
2018-08-16T16:53:13.092Z,27.63
2018-08-16T16:58:08.299Z,27.55
2018-08-16T17:03:03.386Z,27.45
2018-08-16T17:07:58.332Z,27.34
2018-08-16T17:12:53.160Z,27.17
2018-08-16T17:17:47.949Z,26.91
2018-08-16T17:22:43.785Z,26.79
2018-08-16T17:27:38.627Z,26.80
2018-08-16T17:32:33.339Z,26.69
2018-08-16T17:37:28.495Z,26.61
2018-08-16T17:42:23.216Z,26.48
2018-08-16T17:47:18.563Z,26.20
2018-08-16T17:52:13.828Z,25.90
2018-08-16T17:57:08.533Z,25.66
2018-08-16T18:02:03.417Z,25.49
2018-08-16T18:06:58.627Z,25.36
2018-08-16T18:11:53.459Z,25.18
2018-08-16T18:16:48.306Z,25.01
2018-08-16T18:21:43.096Z,24.81
2018-08-16T18:26:37.866Z,24.68
2018-08-16T18:36:51.866Z,24.31
2018-08-16T18:41:47.779Z,24.18
2018-08-16T18:46:42.633Z,24.02
2018-08-16T18:51:37.858Z,23.88
2018-08-16T18:56:32.620Z,23.80
2018-08-16T19:01:27.506Z,23.66
2018-08-16T19:06:22.289Z,23.61
2018-08-16T19:11:17.086Z,23.55
2018-08-16T19:16:11.804Z,23.43
2018-08-16T19:21:06.590Z,23.42
2018-08-16T19:26:01.395Z,23.19
2018-08-16T19:30:56.171Z,23.18
2018-08-16T19:35:51.193Z,23.06
2018-08-16T19:40:46.020Z,22.87
2018-08-16T19:45:40.711Z,22.86
2018-08-16T19:50:35.565Z,22.75
2018-08-16T19:55:30.367Z,22.67
2018-08-16T20:00:25.088Z,22.61
2018-08-16T20:05:19.768Z,22.62
2018-08-16T20:10:18.604Z,22.47
2018-08-16T20:15:13.286Z,22.44
2018-08-16T20:20:08.841Z,22.43
2018-08-16T20:25:03.684Z,22.34
2018-08-16T20:35:02.313Z,22.10
2018-08-16T20:39:57.917Z,21.96
2018-08-16T20:44:52.736Z,21.95
2018-08-16T20:49:47.552Z,21.72
2018-08-16T20:54:42.249Z,21.86
2018-08-16T20:59:36.957Z,21.59
2018-08-16T21:04:31.714Z,21.37
2018-08-16T21:09:26.467Z,21.43
2018-08-16T21:14:21.219Z,21.48
2018-08-16T21:19:15.945Z,21.30
2018-08-16T21:24:10.728Z,21.37
2018-08-16T21:29:05.541Z,21.24
2018-08-16T21:34:00.372Z,21.30
2018-08-16T21:38:55.081Z,21.32
2018-08-16T21:43:49.803Z,21.12
2018-08-16T21:48:44.505Z,20.92
2018-08-16T21:53:39.216Z,20.73
2018-08-16T21:58:33.937Z,20.69
2018-08-16T22:03:29.296Z,20.54
2018-08-16T22:08:24.816Z,20.72
2018-08-16T22:13:19.617Z,20.77
2018-08-16T22:18:14.376Z,20.37
2018-08-16T22:23:09.121Z,20.21
2018-08-16T22:28:03.963Z,20.22
2018-08-16T22:32:58.708Z,20.25
2018-08-16T22:37:53.635Z,20.30
2018-08-16T22:42:48.306Z,20.32
2018-08-16T22:47:43.048Z,20.22
2018-08-16T22:52:38.410Z,20.10
2018-08-16T22:57:33.107Z,20.12
2018-08-16T23:02:27.857Z,19.98
2018-08-16T23:07:22.528Z,20.02
2018-08-16T23:12:17.263Z,19.91
2018-08-16T23:17:12.038Z,19.53
2018-08-16T23:22:06.860Z,19.92
2018-08-16T23:27:01.653Z,19.80
2018-08-16T23:31:56.411Z,19.59
2018-08-16T23:36:51.160Z,19.50
2018-08-16T23:41:45.865Z,19.64
2018-08-16T23:46:40.631Z,19.44
2018-08-16T23:51:35.357Z,19.38
2018-08-16T23:56:30.092Z,19.25
